sensor_id;sensor_type;location;lat;lon;timestamp;P1;durP1;ratioP1;P2;durP2;ratioP2
29210;SDS011;16250;49.932;10.980;2024-01-30T00:00:53;11.82;;;8.25;;
29210;SDS011;16250;49.932;10.980;2024-01-30T00:03:19;10.70;;;8.07;;
29210;SDS011;16250;49.932;10.980;2024-01-30T00:05:44;14.18;;;9.00;;
29210;SDS011;16250;49.932;10.980;2024-01-30T00:08:10;10.25;;;8.25;;
29210;SDS011;16250;49.932;10.980;2024-01-30T00:10:35;9.70;;;8.52;;
29210;SDS011;16250;49.932;10.980;2024-01-30T00:13:01;9.07;;;8.18;;
29210;SDS011;16250;49.932;10.980;2024-01-30T00:15:27;9.98;;;8.30;;
29210;SDS011;16250;49.932;10.980;2024-01-30T00:17:53;13.90;;;10.07;;
29210;SDS011;16250;49.932;10.980;2024-01-30T00:20:18;15.57;;;10.15;;
29210;SDS011;16250;49.932;10.980;2024-01-30T00:22:44;14.82;;;10.95;;
29210;SDS011;16250;49.932;10.980;2024-01-30T00:25:09;13.15;;;9.82;;
29210;SDS011;16250;49.932;10.980;2024-01-30T00:27:34;13.95;;;9.75;;
29210;SDS011;16250;49.932;10.980;2024-01-30T00:30:00;12.75;;;10.18;;
29210;SDS011;16250;49.932;10.980;2024-01-30T00:32:25;12.65;;;10.05;;
29210;SDS011;16250;49.932;10.980;2024-01-30T00:34:50;11.80;;;8.55;;
29210;SDS011;16250;49.932;10.980;2024-01-30T00:37:16;10.80;;;8.68;;
29210;SDS011;16250;49.932;10.980;2024-01-30T00:39:41;10.13;;;8.40;;
29210;SDS011;16250;49.932;10.980;2024-01-30T00:42:07;11.48;;;8.75;;
29210;SDS011;16250;49.932;10.980;2024-01-30T00:44:34;11.43;;;8.75;;
29210;SDS011;16250;49.932;10.980;2024-01-30T00:47:02;11.82;;;8.95;;
29210;SDS011;16250;49.932;10.980;2024-01-30T00:49:28;10.43;;;8.77;;
29210;SDS011;16250;49.932;10.980;2024-01-30T00:51:53;9.23;;;8.27;;
29210;SDS011;16250;49.932;10.980;2024-01-30T00:54:18;13.13;;;8.50;;
29210;SDS011;16250;49.932;10.980;2024-01-30T00:56:44;9.95;;;8.85;;
29210;SDS011;16250;49.932;10.980;2024-01-30T00:59:10;12.07;;;8.98;;
29210;SDS011;16250;49.932;10.980;2024-01-30T01:01:36;10.00;;;8.85;;
29210;SDS011;16250;49.932;10.980;2024-01-30T01:04:01;11.95;;;9.27;;
29210;SDS011;16250;49.932;10.980;2024-01-30T01:06:27;10.77;;;8.45;;
29210;SDS011;16250;49.932;10.980;2024-01-30T01:08:52;10.98;;;8.73;;
29210;SDS011;16250;49.932;10.980;2024-01-30T01:11:18;11.80;;;9.15;;
29210;SDS011;16250;49.932;10.980;2024-01-30T01:13:43;14.13;;;9.32;;
29210;SDS011;16250;49.932;10.980;2024-01-30T01:16:08;10.05;;;8.55;;
29210;SDS011;16250;49.932;10.980;2024-01-30T01:18:34;9.82;;;8.75;;
29210;SDS011;16250;49.932;10.980;2024-01-30T01:20:59;14.43;;;11.13;;
29210;SDS011;16250;49.932;10.980;2024-01-30T01:23:25;13.00;;;9.32;;
29210;SDS011;16250;49.932;10.980;2024-01-30T01:25:50;10.60;;;9.10;;
29210;SDS011;16250;49.932;10.980;2024-01-30T01:28:16;9.98;;;8.80;;
29210;SDS011;16250;49.932;10.980;2024-01-30T01:30:41;11.65;;;9.10;;
29210;SDS011;16250;49.932;10.980;2024-01-30T01:33:06;10.38;;;9.02;;
29210;SDS011;16250;49.932;10.980;2024-01-30T01:35:32;9.95;;;8.80;;
29210;SDS011;16250;49.932;10.980;2024-01-30T01:37:57;10.15;;;8.23;;
29210;SDS011;16250;49.932;10.980;2024-01-30T01:40:25;12.07;;;9.88;;
29210;SDS011;16250;49.932;10.980;2024-01-30T01:42:51;12.05;;;10.80;;
29210;SDS011;16250;49.932;10.980;2024-01-30T01:45:17;14.05;;;10.00;;
29210;SDS011;16250;49.932;10.980;2024-01-30T01:47:43;10.60;;;9.48;;
29210;SDS011;16250;49.932;10.980;2024-01-30T01:50:11;12.55;;;10.90;;
29210;SDS011;16250;49.932;10.980;2024-01-30T01:52:37;12.38;;;10.27;;
29210;SDS011;16250;49.932;10.980;2024-01-30T01:55:04;13.80;;;11.05;;
29210;SDS011;16250;49.932;10.980;2024-01-30T01:57:30;14.65;;;11.27;;
29210;SDS011;16250;49.932;10.980;2024-01-30T01:59:55;12.98;;;10.50;;
29210;SDS011;16250;49.932;10.980;2024-01-30T02:02:21;11.80;;;9.48;;
29210;SDS011;16250;49.932;10.980;2024-01-30T02:04:48;12.15;;;10.50;;
29210;SDS011;16250;49.932;10.980;2024-01-30T02:07:14;12.90;;;11.15;;
29210;SDS011;16250;49.932;10.980;2024-01-30T02:09:39;13.23;;;10.75;;
29210;SDS011;16250;49.932;10.980;2024-01-30T02:12:04;11.10;;;9.98;;
29210;SDS011;16250;49.932;10.980;2024-01-30T02:14:30;11.70;;;9.80;;
29210;SDS011;16250;49.932;10.980;2024-01-30T02:16:55;12.73;;;10.10;;
29210;SDS011;16250;49.932;10.980;2024-01-30T02:19:21;12.32;;;10.48;;
29210;SDS011;16250;49.932;10.980;2024-01-30T02:21:46;11.90;;;10.57;;
29210;SDS011;16250;49.932;10.980;2024-01-30T02:24:11;11.25;;;10.05;;
29210;SDS011;16250;49.932;10.980;2024-01-30T02:26:37;11.95;;;10.68;;
29210;SDS011;16250;49.932;10.980;2024-01-30T02:29:02;12.00;;;10.18;;
29210;SDS011;16250;49.932;10.980;2024-01-30T02:31:28;12.80;;;10.63;;
29210;SDS011;16250;49.932;10.980;2024-01-30T02:33:53;14.65;;;11.20;;
29210;SDS011;16250;49.932;10.980;2024-01-30T02:36:18;11.20;;;10.10;;
29210;SDS011;16250;49.932;10.980;2024-01-30T02:38:44;11.93;;;9.88;;
29210;SDS011;16250;49.932;10.980;2024-01-30T02:41:11;13.15;;;11.15;;
29210;SDS011;16250;49.932;10.980;2024-01-30T02:43:36;11.32;;;10.18;;
29210;SDS011;16250;49.932;10.980;2024-01-30T02:46:02;11.13;;;10.00;;
29210;SDS011;16250;49.932;10.980;2024-01-30T02:48:27;12.45;;;10.75;;
29210;SDS011;16250;49.932;10.980;2024-01-30T02:50:53;11.35;;;9.95;;
29210;SDS011;16250;49.932;10.980;2024-01-30T02:53:18;13.15;;;10.40;;
29210;SDS011;16250;49.932;10.980;2024-01-30T02:55:43;13.98;;;10.95;;
29210;SDS011;16250;49.932;10.980;2024-01-30T02:58:09;17.90;;;10.50;;
29210;SDS011;16250;49.932;10.980;2024-01-30T03:00:34;11.13;;;9.95;;
29210;SDS011;16250;49.932;10.980;2024-01-30T03:03:00;11.43;;;10.23;;
29210;SDS011;16250;49.932;10.980;2024-01-30T03:05:25;14.70;;;11.25;;
29210;SDS011;16250;49.932;10.980;2024-01-30T03:07:50;12.45;;;9.75;;
29210;SDS011;16250;49.932;10.980;2024-01-30T03:10:16;12.23;;;10.93;;
29210;SDS011;16250;49.932;10.980;2024-01-30T03:12:41;11.13;;;9.80;;
29210;SDS011;16250;49.932;10.980;2024-01-30T03:15:06;14.27;;;10.80;;
29210;SDS011;16250;49.932;10.980;2024-01-30T03:17:32;13.30;;;10.50;;
29210;SDS011;16250;49.932;10.980;2024-01-30T03:19:57;11.82;;;10.10;;
29210;SDS011;16250;49.932;10.980;2024-01-30T03:22:23;12.07;;;10.80;;
29210;SDS011;16250;49.932;10.980;2024-01-30T03:24:48;12.93;;;10.43;;
29210;SDS011;16250;49.932;10.980;2024-01-30T03:27:14;11.90;;;10.30;;
29210;SDS011;16250;49.932;10.980;2024-01-30T03:29:39;12.82;;;10.55;;
29210;SDS011;16250;49.932;10.980;2024-01-30T03:32:05;13.32;;;11.27;;
29210;SDS011;16250;49.932;10.980;2024-01-30T03:34:30;13.80;;;11.45;;
29210;SDS011;16250;49.932;10.980;2024-01-30T03:36:55;13.20;;;11.35;;
29210;SDS011;16250;49.932;10.980;2024-01-30T03:39:21;14.90;;;10.77;;
29210;SDS011;16250;49.932;10.980;2024-01-30T03:41:46;14.63;;;10.95;;
29210;SDS011;16250;49.932;10.980;2024-01-30T03:44:11;12.07;;;10.52;;
29210;SDS011;16250;49.932;10.980;2024-01-30T03:46:37;12.55;;;11.25;;
29210;SDS011;16250;49.932;10.980;2024-01-30T03:49:02;14.27;;;11.65;;
29210;SDS011;16250;49.932;10.980;2024-01-30T03:51:28;12.27;;;10.55;;
29210;SDS011;16250;49.932;10.980;2024-01-30T03:53:53;13.57;;;12.05;;
29210;SDS011;16250;49.932;10.980;2024-01-30T03:56:19;13.82;;;12.20;;
29210;SDS011;16250;49.932;10.980;2024-01-30T03:58:44;12.73;;;11.40;;
29210;SDS011;16250;49.932;10.980;2024-01-30T04:01:13;13.02;;;11.07;;
29210;SDS011;16250;49.932;10.980;2024-01-30T04:03:39;13.20;;;11.75;;
29210;SDS011;16250;49.932;10.980;2024-01-30T04:06:04;14.70;;;10.77;;
29210;SDS011;16250;49.932;10.980;2024-01-30T04:08:30;13.45;;;11.27;;
29210;SDS011;16250;49.932;10.980;2024-01-30T04:10:55;15.52;;;11.98;;
29210;SDS011;16250;49.932;10.980;2024-01-30T04:13:20;13.57;;;11.88;;
29210;SDS011;16250;49.932;10.980;2024-01-30T04:15:46;15.40;;;11.40;;
29210;SDS011;16250;49.932;10.980;2024-01-30T04:18:11;13.13;;;11.45;;
29210;SDS011;16250;49.932;10.980;2024-01-30T04:20:36;13.95;;;12.18;;
29210;SDS011;16250;49.932;10.980;2024-01-30T04:23:02;14.30;;;11.88;;
29210;SDS011;16250;49.932;10.980;2024-01-30T04:25:27;14.27;;;11.38;;
29210;SDS011;16250;49.932;10.980;2024-01-30T04:27:53;14.63;;;12.30;;
29210;SDS011;16250;49.932;10.980;2024-01-30T04:30:18;16.25;;;13.43;;
29210;SDS011;16250;49.932;10.980;2024-01-30T04:32:43;15.32;;;12.02;;
29210;SDS011;16250;49.932;10.980;2024-01-30T04:35:09;13.27;;;11.77;;
29210;SDS011;16250;49.932;10.980;2024-01-30T04:37:34;14.23;;;12.68;;
29210;SDS011;16250;49.932;10.980;2024-01-30T04:40:00;17.10;;;14.30;;
29210;SDS011;16250;49.932;10.980;2024-01-30T04:42:25;26.67;;;18.95;;
29210;SDS011;16250;49.932;10.980;2024-01-30T04:44:50;17.88;;;14.48;;
29210;SDS011;16250;49.932;10.980;2024-01-30T04:47:16;15.68;;;13.35;;
29210;SDS011;16250;49.932;10.980;2024-01-30T04:49:41;14.25;;;12.52;;
29210;SDS011;16250;49.932;10.980;2024-01-30T04:52:07;14.85;;;13.35;;
29210;SDS011;16250;49.932;10.980;2024-01-30T04:54:34;17.15;;;13.75;;
29210;SDS011;16250;49.932;10.980;2024-01-30T04:57:00;16.60;;;13.57;;
29210;SDS011;16250;49.932;10.980;2024-01-30T04:59:25;14.88;;;13.27;;
29210;SDS011;16250;49.932;10.980;2024-01-30T05:01:51;17.27;;;14.93;;
29210;SDS011;16250;49.932;10.980;2024-01-30T05:04:16;19.88;;;17.00;;
29210;SDS011;16250;49.932;10.980;2024-01-30T05:06:41;18.35;;;16.35;;
29210;SDS011;16250;49.932;10.980;2024-01-30T05:09:08;17.50;;;15.48;;
29210;SDS011;16250;49.932;10.980;2024-01-30T05:11:37;16.23;;;14.52;;
29210;SDS011;16250;49.932;10.980;2024-01-30T05:14:04;18.98;;;16.98;;
29210;SDS011;16250;49.932;10.980;2024-01-30T05:16:29;21.40;;;18.60;;
29210;SDS011;16250;49.932;10.980;2024-01-30T05:18:55;20.63;;;18.02;;
29210;SDS011;16250;49.932;10.980;2024-01-30T05:21:20;20.25;;;16.58;;
29210;SDS011;16250;49.932;10.980;2024-01-30T05:23:45;21.02;;;17.45;;
29210;SDS011;16250;49.932;10.980;2024-01-30T05:26:11;24.08;;;19.52;;
29210;SDS011;16250;49.932;10.980;2024-01-30T05:28:36;21.55;;;18.88;;
29210;SDS011;16250;49.932;10.980;2024-01-30T05:31:02;19.13;;;17.05;;
29210;SDS011;16250;49.932;10.980;2024-01-30T05:33:28;19.20;;;17.17;;
29210;SDS011;16250;49.932;10.980;2024-01-30T05:35:53;20.70;;;16.85;;
29210;SDS011;16250;49.932;10.980;2024-01-30T05:38:19;19.73;;;17.35;;
29210;SDS011;16250;49.932;10.980;2024-01-30T05:40:44;21.17;;;18.98;;
29210;SDS011;16250;49.932;10.980;2024-01-30T05:43:10;21.58;;;19.02;;
29210;SDS011;16250;49.932;10.980;2024-01-30T05:45:35;21.45;;;18.67;;
29210;SDS011;16250;49.932;10.980;2024-01-30T05:48:01;21.25;;;18.65;;
29210;SDS011;16250;49.932;10.980;2024-01-30T05:50:26;24.25;;;18.65;;
29210;SDS011;16250;49.932;10.980;2024-01-30T05:52:52;25.10;;;19.10;;
29210;SDS011;16250;49.932;10.980;2024-01-30T05:55:17;19.45;;;17.40;;
29210;SDS011;16250;49.932;10.980;2024-01-30T05:57:43;24.83;;;18.98;;
29210;SDS011;16250;49.932;10.980;2024-01-30T06:00:08;29.33;;;20.92;;
29210;SDS011;16250;49.932;10.980;2024-01-30T06:02:34;23.60;;;17.42;;
29210;SDS011;16250;49.932;10.980;2024-01-30T06:04:59;28.70;;;20.70;;
29210;SDS011;16250;49.932;10.980;2024-01-30T06:07:24;24.67;;;19.40;;
29210;SDS011;16250;49.932;10.980;2024-01-30T06:09:50;18.63;;;14.90;;
29210;SDS011;16250;49.932;10.980;2024-01-30T06:12:15;16.80;;;15.10;;
29210;SDS011;16250;49.932;10.980;2024-01-30T06:14:41;16.85;;;15.05;;
29210;SDS011;16250;49.932;10.980;2024-01-30T06:17:07;19.58;;;16.73;;
29210;SDS011;16250;49.932;10.980;2024-01-30T06:19:33;19.55;;;16.67;;
29210;SDS011;16250;49.932;10.980;2024-01-30T06:21:58;16.95;;;15.10;;
29210;SDS011;16250;49.932;10.980;2024-01-30T06:24:24;17.00;;;14.25;;
29210;SDS011;16250;49.932;10.980;2024-01-30T06:26:49;15.18;;;12.02;;
29210;SDS011;16250;49.932;10.980;2024-01-30T06:29:15;14.82;;;13.43;;
29210;SDS011;16250;49.932;10.980;2024-01-30T06:31:41;15.02;;;13.13;;
29210;SDS011;16250;49.932;10.980;2024-01-30T06:34:07;14.65;;;13.15;;
29210;SDS011;16250;49.932;10.980;2024-01-30T06:36:33;15.68;;;13.23;;
29210;SDS011;16250;49.932;10.980;2024-01-30T06:38:59;16.83;;;13.75;;
29210;SDS011;16250;49.932;10.980;2024-01-30T06:41:24;13.80;;;12.15;;
29210;SDS011;16250;49.932;10.980;2024-01-30T06:43:50;13.07;;;11.60;;
29210;SDS011;16250;49.932;10.980;2024-01-30T06:46:15;13.25;;;11.10;;
29210;SDS011;16250;49.932;10.980;2024-01-30T06:48:40;12.35;;;11.15;;
29210;SDS011;16250;49.932;10.980;2024-01-30T06:51:06;12.02;;;10.85;;
29210;SDS011;16250;49.932;10.980;2024-01-30T06:53:31;12.88;;;11.05;;
29210;SDS011;16250;49.932;10.980;2024-01-30T06:55:57;12.32;;;11.02;;
29210;SDS011;16250;49.932;10.980;2024-01-30T06:58:22;12.88;;;10.60;;
29210;SDS011;16250;49.932;10.980;2024-01-30T07:00:47;11.63;;;10.30;;
29210;SDS011;16250;49.932;10.980;2024-01-30T07:03:13;12.20;;;10.05;;
29210;SDS011;16250;49.932;10.980;2024-01-30T07:05:38;11.32;;;10.13;;
29210;SDS011;16250;49.932;10.980;2024-01-30T07:08:03;11.82;;;10.52;;
29210;SDS011;16250;49.932;10.980;2024-01-30T07:10:29;12.48;;;10.23;;
29210;SDS011;16250;49.932;10.980;2024-01-30T07:12:56;12.10;;;10.52;;
29210;SDS011;16250;49.932;10.980;2024-01-30T07:15:21;15.30;;;10.98;;
29210;SDS011;16250;49.932;10.980;2024-01-30T07:17:47;20.77;;;16.00;;
29210;SDS011;16250;49.932;10.980;2024-01-30T07:20:12;16.80;;;14.15;;
29210;SDS011;16250;49.932;10.980;2024-01-30T07:22:38;16.60;;;13.50;;
29210;SDS011;16250;49.932;10.980;2024-01-30T07:25:03;15.75;;;13.55;;
29210;SDS011;16250;49.932;10.980;2024-01-30T07:27:29;19.70;;;14.30;;
29210;SDS011;16250;49.932;10.980;2024-01-30T07:29:54;13.13;;;11.52;;
29210;SDS011;16250;49.932;10.980;2024-01-30T07:32:20;12.35;;;9.73;;
29210;SDS011;16250;49.932;10.980;2024-01-30T07:34:45;12.80;;;11.07;;
29210;SDS011;16250;49.932;10.980;2024-01-30T07:37:10;13.50;;;11.15;;
29210;SDS011;16250;49.932;10.980;2024-01-30T07:39:40;12.63;;;11.35;;
29210;SDS011;16250;49.932;10.980;2024-01-30T07:42:06;11.77;;;10.55;;
29210;SDS011;16250;49.932;10.980;2024-01-30T07:44:31;12.38;;;11.10;;
29210;SDS011;16250;49.932;10.980;2024-01-30T07:46:56;12.20;;;10.98;;
29210;SDS011;16250;49.932;10.980;2024-01-30T07:49:22;12.88;;;11.05;;
29210;SDS011;16250;49.932;10.980;2024-01-30T07:51:47;13.25;;;11.25;;
29210;SDS011;16250;49.932;10.980;2024-01-30T07:54:13;12.80;;;11.13;;
29210;SDS011;16250;49.932;10.980;2024-01-30T07:56:38;12.52;;;11.18;;
29210;SDS011;16250;49.932;10.980;2024-01-30T07:59:03;16.38;;;12.05;;
29210;SDS011;16250;49.932;10.980;2024-01-30T08:01:29;12.98;;;11.70;;
29210;SDS011;16250;49.932;10.980;2024-01-30T08:03:54;16.35;;;14.65;;
29210;SDS011;16250;49.932;10.980;2024-01-30T08:06:20;12.68;;;11.15;;
29210;SDS011;16250;49.932;10.980;2024-01-30T08:08:45;12.90;;;11.60;;
29210;SDS011;16250;49.932;10.980;2024-01-30T08:11:11;14.32;;;11.25;;
29210;SDS011;16250;49.932;10.980;2024-01-30T08:13:37;15.20;;;12.00;;
29210;SDS011;16250;49.932;10.980;2024-01-30T08:16:02;14.43;;;12.18;;
29210;SDS011;16250;49.932;10.980;2024-01-30T08:18:29;14.13;;;12.52;;
29210;SDS011;16250;49.932;10.980;2024-01-30T08:20:54;13.75;;;11.38;;
29210;SDS011;16250;49.932;10.980;2024-01-30T08:23:20;13.82;;;10.65;;
29210;SDS011;16250;49.932;10.980;2024-01-30T08:25:45;14.38;;;11.23;;
29210;SDS011;16250;49.932;10.980;2024-01-30T08:28:10;15.73;;;12.38;;
29210;SDS011;16250;49.932;10.980;2024-01-30T08:30:36;13.85;;;11.88;;
29210;SDS011;16250;49.932;10.980;2024-01-30T08:33:01;13.23;;;11.85;;
29210;SDS011;16250;49.932;10.980;2024-01-30T08:35:27;15.43;;;12.02;;
29210;SDS011;16250;49.932;10.980;2024-01-30T08:37:53;13.73;;;11.63;;
29210;SDS011;16250;49.932;10.980;2024-01-30T08:40:19;12.65;;;11.27;;
29210;SDS011;16250;49.932;10.980;2024-01-30T08:42:44;14.98;;;13.30;;
29210;SDS011;16250;49.932;10.980;2024-01-30T08:45:10;15.77;;;13.10;;
29210;SDS011;16250;49.932;10.980;2024-01-30T08:47:36;15.23;;;13.15;;
29210;SDS011;16250;49.932;10.980;2024-01-30T08:50:02;14.57;;;13.02;;
29210;SDS011;16250;49.932;10.980;2024-01-30T08:52:27;15.98;;;12.77;;
29210;SDS011;16250;49.932;10.980;2024-01-30T08:54:53;17.73;;;13.20;;
29210;SDS011;16250;49.932;10.980;2024-01-30T08:57:19;15.60;;;13.25;;
29210;SDS011;16250;49.932;10.980;2024-01-30T08:59:46;15.60;;;12.20;;
29210;SDS011;16250;49.932;10.980;2024-01-30T09:02:11;15.52;;;12.73;;
29210;SDS011;16250;49.932;10.980;2024-01-30T09:04:43;15.10;;;12.38;;
29210;SDS011;16250;49.932;10.980;2024-01-30T09:07:09;15.60;;;13.13;;
29210;SDS011;16250;49.932;10.980;2024-01-30T09:09:37;14.77;;;11.93;;
29210;SDS011;16250;49.932;10.980;2024-01-30T09:12:04;16.05;;;13.15;;
29210;SDS011;16250;49.932;10.980;2024-01-30T09:14:32;14.43;;;12.23;;
29210;SDS011;16250;49.932;10.980;2024-01-30T09:17:01;15.48;;;13.13;;
29210;SDS011;16250;49.932;10.980;2024-01-30T09:19:28;13.93;;;12.35;;
29210;SDS011;16250;49.932;10.980;2024-01-30T09:21:54;13.20;;;11.73;;
29210;SDS011;16250;49.932;10.980;2024-01-30T09:24:19;13.48;;;12.10;;
29210;SDS011;16250;49.932;10.980;2024-01-30T09:26:44;14.98;;;12.05;;
29210;SDS011;16250;49.932;10.980;2024-01-30T09:29:10;14.30;;;12.10;;
29210;SDS011;16250;49.932;10.980;2024-01-30T09:31:35;14.30;;;11.80;;
29210;SDS011;16250;49.932;10.980;2024-01-30T09:34:00;11.93;;;10.45;;
29210;SDS011;16250;49.932;10.980;2024-01-30T09:36:26;14.15;;;11.85;;
29210;SDS011;16250;49.932;10.980;2024-01-30T09:38:52;16.70;;;12.13;;
29210;SDS011;16250;49.932;10.980;2024-01-30T09:41:18;13.95;;;12.07;;
29210;SDS011;16250;49.932;10.980;2024-01-30T09:43:45;13.68;;;11.98;;
29210;SDS011;16250;49.932;10.980;2024-01-30T09:46:13;16.33;;;12.20;;
29210;SDS011;16250;49.932;10.980;2024-01-30T09:48:40;15.18;;;12.40;;
29210;SDS011;16250;49.932;10.980;2024-01-30T09:51:07;15.95;;;13.23;;
29210;SDS011;16250;49.932;10.980;2024-01-30T09:53:34;16.90;;;13.27;;
29210;SDS011;16250;49.932;10.980;2024-01-30T09:55:59;18.27;;;15.25;;
29210;SDS011;16250;49.932;10.980;2024-01-30T09:58:26;16.65;;;14.45;;
29210;SDS011;16250;49.932;10.980;2024-01-30T10:00:51;16.80;;;14.80;;
29210;SDS011;16250;49.932;10.980;2024-01-30T10:03:19;16.95;;;14.27;;
29210;SDS011;16250;49.932;10.980;2024-01-30T10:05:48;14.90;;;13.20;;
29210;SDS011;16250;49.932;10.980;2024-01-30T10:08:17;16.10;;;14.40;;
29210;SDS011;16250;49.932;10.980;2024-01-30T10:10:47;15.48;;;13.88;;
29210;SDS011;16250;49.932;10.980;2024-01-30T10:13:17;20.27;;;14.38;;
29210;SDS011;16250;49.932;10.980;2024-01-30T10:15:47;15.43;;;13.50;;
29210;SDS011;16250;49.932;10.980;2024-01-30T10:18:12;17.35;;;14.05;;
29210;SDS011;16250;49.932;10.980;2024-01-30T10:20:38;16.42;;;14.13;;
29210;SDS011;16250;49.932;10.980;2024-01-30T10:23:03;14.68;;;13.10;;
29210;SDS011;16250;49.932;10.980;2024-01-30T10:25:33;15.88;;;13.52;;
29210;SDS011;16250;49.932;10.980;2024-01-30T10:28:02;15.68;;;13.35;;
29210;SDS011;16250;49.932;10.980;2024-01-30T10:30:28;15.38;;;13.25;;
29210;SDS011;16250;49.932;10.980;2024-01-30T10:32:54;15.52;;;13.18;;
29210;SDS011;16250;49.932;10.980;2024-01-30T10:35:20;19.95;;;14.07;;
29210;SDS011;16250;49.932;10.980;2024-01-30T10:37:48;15.70;;;13.23;;
29210;SDS011;16250;49.932;10.980;2024-01-30T10:40:14;17.42;;;14.70;;
29210;SDS011;16250;49.932;10.980;2024-01-30T10:42:44;19.52;;;16.63;;
29210;SDS011;16250;49.932;10.980;2024-01-30T10:45:13;19.75;;;15.23;;
29210;SDS011;16250;49.932;10.980;2024-01-30T10:47:43;16.75;;;13.93;;
29210;SDS011;16250;49.932;10.980;2024-01-30T10:50:13;32.50;;;26.13;;
29210;SDS011;16250;49.932;10.980;2024-01-30T10:52:39;18.98;;;16.15;;
29210;SDS011;16250;49.932;10.980;2024-01-30T10:55:09;18.30;;;13.95;;
29210;SDS011;16250;49.932;10.980;2024-01-30T10:57:35;20.52;;;14.63;;
29210;SDS011;16250;49.932;10.980;2024-01-30T11:00:02;17.33;;;13.88;;
29210;SDS011;16250;49.932;10.980;2024-01-30T11:02:38;16.13;;;14.43;;
29210;SDS011;16250;49.932;10.980;2024-01-30T11:05:04;22.27;;;15.18;;
29210;SDS011;16250;49.932;10.980;2024-01-30T11:07:30;21.98;;;17.33;;
29210;SDS011;16250;49.932;10.980;2024-01-30T11:12:25;18.77;;;15.68;;
29210;SDS011;16250;49.932;10.980;2024-01-30T11:20:27;23.15;;;17.27;;
29210;SDS011;16250;49.932;10.980;2024-01-30T11:22:56;23.63;;;17.60;;
29210;SDS011;16250;49.932;10.980;2024-01-30T11:25:22;22.05;;;17.13;;
29210;SDS011;16250;49.932;10.980;2024-01-30T11:27:55;21.33;;;18.27;;
29210;SDS011;16250;49.932;10.980;2024-01-30T11:30:30;22.95;;;18.65;;
29210;SDS011;16250;49.932;10.980;2024-01-30T11:35:32;20.15;;;17.88;;
29210;SDS011;16250;49.932;10.980;2024-01-30T11:37:59;21.83;;;18.15;;
29210;SDS011;16250;49.932;10.980;2024-01-30T11:40:26;20.58;;;18.35;;
29210;SDS011;16250;49.932;10.980;2024-01-30T11:42:53;22.70;;;18.08;;
29210;SDS011;16250;49.932;10.980;2024-01-30T11:45:19;21.25;;;17.67;;
29210;SDS011;16250;49.932;10.980;2024-01-30T11:47:45;22.38;;;17.27;;
29210;SDS011;16250;49.932;10.980;2024-01-30T11:50:10;23.02;;;18.42;;
29210;SDS011;16250;49.932;10.980;2024-01-30T11:52:36;21.92;;;16.92;;
29210;SDS011;16250;49.932;10.980;2024-01-30T11:55:01;19.92;;;17.35;;
29210;SDS011;16250;49.932;10.980;2024-01-30T11:57:27;20.02;;;15.55;;
29210;SDS011;16250;49.932;10.980;2024-01-30T11:59:53;18.85;;;16.80;;
29210;SDS011;16250;49.932;10.980;2024-01-30T12:02:18;22.30;;;17.73;;
29210;SDS011;16250;49.932;10.980;2024-01-30T12:04:44;25.55;;;20.23;;
29210;SDS011;16250;49.932;10.980;2024-01-30T12:07:09;24.77;;;19.52;;
29210;SDS011;16250;49.932;10.980;2024-01-30T12:09:35;22.10;;;18.63;;
29210;SDS011;16250;49.932;10.980;2024-01-30T12:12:01;23.15;;;18.10;;
29210;SDS011;16250;49.932;10.980;2024-01-30T12:14:26;20.15;;;16.77;;
29210;SDS011;16250;49.932;10.980;2024-01-30T12:16:52;22.98;;;18.10;;
29210;SDS011;16250;49.932;10.980;2024-01-30T12:19:23;19.55;;;16.40;;
29210;SDS011;16250;49.932;10.980;2024-01-30T12:21:59;17.95;;;15.68;;
29210;SDS011;16250;49.932;10.980;2024-01-30T12:24:25;21.65;;;16.35;;
29210;SDS011;16250;49.932;10.980;2024-01-30T12:26:51;21.98;;;16.45;;
29210;SDS011;16250;49.932;10.980;2024-01-30T12:29:17;21.77;;;15.93;;
29210;SDS011;16250;49.932;10.980;2024-01-30T12:31:42;17.92;;;15.45;;
29210;SDS011;16250;49.932;10.980;2024-01-30T12:34:08;20.55;;;15.65;;
29210;SDS011;16250;49.932;10.980;2024-01-30T12:36:34;19.38;;;16.13;;
29210;SDS011;16250;49.932;10.980;2024-01-30T12:39:01;18.48;;;15.85;;
29210;SDS011;16250;49.932;10.980;2024-01-30T12:41:27;22.65;;;16.80;;
29210;SDS011;16250;49.932;10.980;2024-01-30T12:43:54;24.92;;;19.92;;
29210;SDS011;16250;49.932;10.980;2024-01-30T12:46:19;24.08;;;19.05;;
29210;SDS011;16250;49.932;10.980;2024-01-30T12:48:44;22.67;;;17.65;;
29210;SDS011;16250;49.932;10.980;2024-01-30T12:51:10;24.45;;;20.42;;
29210;SDS011;16250;49.932;10.980;2024-01-30T12:53:35;19.58;;;16.42;;
29210;SDS011;16250;49.932;10.980;2024-01-30T12:56:01;17.85;;;15.52;;
29210;SDS011;16250;49.932;10.980;2024-01-30T12:58:26;21.52;;;16.17;;
29210;SDS011;16250;49.932;10.980;2024-01-30T13:00:52;16.10;;;13.43;;
29210;SDS011;16250;49.932;10.980;2024-01-30T13:03:19;14.73;;;12.35;;
29210;SDS011;16250;49.932;10.980;2024-01-30T13:05:44;13.85;;;11.85;;
29210;SDS011;16250;49.932;10.980;2024-01-30T13:08:09;14.90;;;11.80;;
29210;SDS011;16250;49.932;10.980;2024-01-30T13:10:35;14.57;;;12.02;;
29210;SDS011;16250;49.932;10.980;2024-01-30T13:13:00;15.88;;;13.57;;
29210;SDS011;16250;49.932;10.980;2024-01-30T13:15:25;15.55;;;12.70;;
29210;SDS011;16250;49.932;10.980;2024-01-30T13:17:51;19.63;;;13.88;;
29210;SDS011;16250;49.932;10.980;2024-01-30T13:20:19;17.63;;;14.85;;
29210;SDS011;16250;49.932;10.980;2024-01-30T13:22:47;18.98;;;14.25;;
29210;SDS011;16250;49.932;10.980;2024-01-30T13:25:13;15.10;;;12.52;;
29210;SDS011;16250;49.932;10.980;2024-01-30T13:27:39;18.10;;;13.15;;
29210;SDS011;16250;49.932;10.980;2024-01-30T13:30:04;17.95;;;14.80;;
29210;SDS011;16250;49.932;10.980;2024-01-30T13:32:31;17.42;;;12.38;;
29210;SDS011;16250;49.932;10.980;2024-01-30T13:34:56;22.85;;;15.95;;
29210;SDS011;16250;49.932;10.980;2024-01-30T13:37:22;18.35;;;16.05;;
29210;SDS011;16250;49.932;10.980;2024-01-30T13:39:48;16.05;;;13.27;;
29210;SDS011;16250;49.932;10.980;2024-01-30T13:42:13;20.48;;;13.95;;
29210;SDS011;16250;49.932;10.980;2024-01-30T13:44:38;17.92;;;14.88;;
29210;SDS011;16250;49.932;10.980;2024-01-30T13:47:04;20.38;;;15.73;;
29210;SDS011;16250;49.932;10.980;2024-01-30T13:49:30;16.58;;;13.93;;
29210;SDS011;16250;49.932;10.980;2024-01-30T13:51:55;21.38;;;15.75;;
29210;SDS011;16250;49.932;10.980;2024-01-30T13:54:21;24.95;;;16.95;;
29210;SDS011;16250;49.932;10.980;2024-01-30T13:56:46;20.67;;;14.98;;
29210;SDS011;16250;49.932;10.980;2024-01-30T13:59:11;18.95;;;14.68;;
29210;SDS011;16250;49.932;10.980;2024-01-30T14:01:37;17.23;;;14.30;;
29210;SDS011;16250;49.932;10.980;2024-01-30T14:04:02;16.80;;;13.75;;
29210;SDS011;16250;49.932;10.980;2024-01-30T14:06:28;17.90;;;13.07;;
29210;SDS011;16250;49.932;10.980;2024-01-30T14:08:53;23.25;;;12.73;;
29210;SDS011;16250;49.932;10.980;2024-01-30T14:11:19;18.50;;;12.73;;
29210;SDS011;16250;49.932;10.980;2024-01-30T14:13:44;19.27;;;13.27;;